sensor_id;sensor_type;location;lat;lon;timestamp;P1;durP1;ratioP1;P2;durP2;ratioP2
11957;SDS011;6039;52.576;13.348;2023-04-08T00:01:32;10.97;;;6.23;;
11957;SDS011;6039;52.576;13.348;2023-04-08T00:06:36;11.40;;;6.77;;
11957;SDS011;6039;52.576;13.348;2023-04-08T00:11:42;13.67;;;7.17;;
11957;SDS011;6039;52.576;13.348;2023-04-08T00:16:46;11.67;;;6.77;;
11957;SDS011;6039;52.576;13.348;2023-04-08T00:21:50;14.20;;;7.40;;
11957;SDS011;6039;52.576;13.348;2023-04-08T00:26:56;14.77;;;6.93;;
11957;SDS011;6039;52.576;13.348;2023-04-08T00:32:01;11.40;;;6.87;;
11957;SDS011;6039;52.576;13.348;2023-04-08T00:37:06;15.77;;;7.60;;
11957;SDS011;6039;52.576;13.348;2023-04-08T00:42:13;15.43;;;7.93;;
11957;SDS011;6039;52.576;13.348;2023-04-08T00:47:16;16.77;;;8.47;;
11957;SDS011;6039;52.576;13.348;2023-04-08T00:52:21;15.37;;;7.90;;
11957;SDS011;6039;52.576;13.348;2023-04-08T00:57:27;15.10;;;8.47;;
11957;SDS011;6039;52.576;13.348;2023-04-08T01:02:35;17.23;;;8.40;;
11957;SDS011;6039;52.576;13.348;2023-04-08T01:07:46;16.97;;;8.23;;
11957;SDS011;6039;52.576;13.348;2023-04-08T01:12:54;16.33;;;8.80;;
11957;SDS011;6039;52.576;13.348;2023-04-08T01:17:59;19.57;;;8.87;;
11957;SDS011;6039;52.576;13.348;2023-04-08T01:23:09;17.13;;;8.73;;
11957;SDS011;6039;52.576;13.348;2023-04-08T01:28:21;16.37;;;8.07;;
11957;SDS011;6039;52.576;13.348;2023-04-08T01:33:27;22.03;;;9.63;;
11957;SDS011;6039;52.576;13.348;2023-04-08T01:38:31;17.40;;;8.77;;
11957;SDS011;6039;52.576;13.348;2023-04-08T01:43:38;20.67;;;9.53;;
11957;SDS011;6039;52.576;13.348;2023-04-08T01:48:43;18.13;;;9.60;;
11957;SDS011;6039;52.576;13.348;2023-04-08T01:53:47;16.83;;;8.80;;
11957;SDS011;6039;52.576;13.348;2023-04-08T01:58:54;19.83;;;9.33;;
11957;SDS011;6039;52.576;13.348;2023-04-08T02:04:01;18.77;;;9.10;;
11957;SDS011;6039;52.576;13.348;2023-04-08T02:09:06;17.47;;;8.47;;
11957;SDS011;6039;52.576;13.348;2023-04-08T02:14:12;21.07;;;9.43;;
11957;SDS011;6039;52.576;13.348;2023-04-08T02:19:17;16.07;;;8.50;;
11957;SDS011;6039;52.576;13.348;2023-04-08T02:24:26;21.53;;;8.70;;
11957;SDS011;6039;52.576;13.348;2023-04-08T02:29:33;18.77;;;9.43;;
11957;SDS011;6039;52.576;13.348;2023-04-08T02:34:38;20.20;;;8.30;;
11957;SDS011;6039;52.576;13.348;2023-04-08T02:39:42;17.20;;;8.47;;
11957;SDS011;6039;52.576;13.348;2023-04-08T02:44:49;17.23;;;8.50;;
11957;SDS011;6039;52.576;13.348;2023-04-08T02:49:53;17.57;;;9.37;;
11957;SDS011;6039;52.576;13.348;2023-04-08T02:54:57;15.80;;;8.67;;
11957;SDS011;6039;52.576;13.348;2023-04-08T03:00:04;21.33;;;9.67;;
11957;SDS011;6039;52.576;13.348;2023-04-08T03:05:09;20.20;;;9.20;;
11957;SDS011;6039;52.576;13.348;2023-04-08T03:10:15;16.70;;;8.23;;
11957;SDS011;6039;52.576;13.348;2023-04-08T03:15:21;18.40;;;8.83;;
11957;SDS011;6039;52.576;13.348;2023-04-08T03:20:26;18.17;;;8.23;;
11957;SDS011;6039;52.576;13.348;2023-04-08T03:25:30;19.53;;;9.33;;
11957;SDS011;6039;52.576;13.348;2023-04-08T03:30:36;15.27;;;8.63;;
11957;SDS011;6039;52.576;13.348;2023-04-08T03:35:40;19.37;;;9.13;;
11957;SDS011;6039;52.576;13.348;2023-04-08T03:40:44;20.60;;;8.27;;
11957;SDS011;6039;52.576;13.348;2023-04-08T03:45:51;16.50;;;9.10;;
11957;SDS011;6039;52.576;13.348;2023-04-08T03:50:55;17.20;;;9.37;;
11957;SDS011;6039;52.576;13.348;2023-04-08T03:55:59;20.40;;;9.10;;
11957;SDS011;6039;52.576;13.348;2023-04-08T04:01:06;19.83;;;9.27;;
11957;SDS011;6039;52.576;13.348;2023-04-08T04:06:10;20.63;;;9.30;;
11957;SDS011;6039;52.576;13.348;2023-04-08T04:11:14;19.83;;;8.10;;
11957;SDS011;6039;52.576;13.348;2023-04-08T04:16:20;18.07;;;8.60;;
11957;SDS011;6039;52.576;13.348;2023-04-08T04:21:24;22.17;;;9.53;;
11957;SDS011;6039;52.576;13.348;2023-04-08T04:26:28;17.27;;;8.93;;
11957;SDS011;6039;52.576;13.348;2023-04-08T04:31:35;20.27;;;9.93;;
11957;SDS011;6039;52.576;13.348;2023-04-08T04:36:39;17.70;;;8.43;;
11957;SDS011;6039;52.576;13.348;2023-04-08T04:41:43;19.60;;;9.33;;
11957;SDS011;6039;52.576;13.348;2023-04-08T04:46:50;20.13;;;9.23;;
11957;SDS011;6039;52.576;13.348;2023-04-08T04:51:54;21.57;;;9.30;;
11957;SDS011;6039;52.576;13.348;2023-04-08T04:56:58;18.57;;;8.83;;
11957;SDS011;6039;52.576;13.348;2023-04-08T05:02:05;20.90;;;9.20;;
11957;SDS011;6039;52.576;13.348;2023-04-08T05:07:09;24.03;;;10.40;;
11957;SDS011;6039;52.576;13.348;2023-04-08T05:12:13;17.77;;;9.33;;
11957;SDS011;6039;52.576;13.348;2023-04-08T05:17:19;22.97;;;9.73;;
11957;SDS011;6039;52.576;13.348;2023-04-08T05:22:23;17.47;;;9.80;;
11957;SDS011;6039;52.576;13.348;2023-04-08T05:27:27;17.17;;;9.70;;
11957;SDS011;6039;52.576;13.348;2023-04-08T05:32:34;20.17;;;10.70;;
11957;SDS011;6039;52.576;13.348;2023-04-08T05:37:37;25.87;;;10.87;;
11957;SDS011;6039;52.576;13.348;2023-04-08T05:42:41;21.93;;;10.53;;
11957;SDS011;6039;52.576;13.348;2023-04-08T05:47:48;22.23;;;10.70;;
11957;SDS011;6039;52.576;13.348;2023-04-08T05:52:52;22.93;;;9.90;;
11957;SDS011;6039;52.576;13.348;2023-04-08T05:57:56;21.53;;;10.70;;
11957;SDS011;6039;52.576;13.348;2023-04-08T06:03:02;24.30;;;11.60;;
11957;SDS011;6039;52.576;13.348;2023-04-08T06:08:06;23.60;;;10.83;;
11957;SDS011;6039;52.576;13.348;2023-04-08T06:13:10;24.20;;;10.80;;
11957;SDS011;6039;52.576;13.348;2023-04-08T06:18:17;22.60;;;10.63;;
11957;SDS011;6039;52.576;13.348;2023-04-08T06:23:21;24.97;;;11.17;;
11957;SDS011;6039;52.576;13.348;2023-04-08T06:28:25;23.67;;;11.20;;
11957;SDS011;6039;52.576;13.348;2023-04-08T06:33:35;20.77;;;10.47;;
11957;SDS011;6039;52.576;13.348;2023-04-08T06:38:39;19.93;;;10.70;;
11957;SDS011;6039;52.576;13.348;2023-04-08T06:43:43;25.43;;;10.63;;
11957;SDS011;6039;52.576;13.348;2023-04-08T06:48:50;21.40;;;10.67;;
11957;SDS011;6039;52.576;13.348;2023-04-08T06:53:54;22.63;;;10.23;;
11957;SDS011;6039;52.576;13.348;2023-04-08T06:58:58;23.53;;;10.70;;
11957;SDS011;6039;52.576;13.348;2023-04-08T07:04:05;20.50;;;10.60;;
11957;SDS011;6039;52.576;13.348;2023-04-08T07:09:09;19.57;;;9.87;;
11957;SDS011;6039;52.576;13.348;2023-04-08T07:14:12;23.00;;;10.53;;
11957;SDS011;6039;52.576;13.348;2023-04-08T07:19:19;21.63;;;9.93;;
11957;SDS011;6039;52.576;13.348;2023-04-08T07:24:23;22.57;;;10.87;;
11957;SDS011;6039;52.576;13.348;2023-04-08T07:29:27;28.30;;;11.17;;
11957;SDS011;6039;52.576;13.348;2023-04-08T07:34:35;25.00;;;10.80;;
11957;SDS011;6039;52.576;13.348;2023-04-08T07:39:39;24.47;;;10.73;;
11957;SDS011;6039;52.576;13.348;2023-04-08T07:44:44;21.17;;;10.13;;
11957;SDS011;6039;52.576;13.348;2023-04-08T07:49:50;26.27;;;12.27;;
11957;SDS011;6039;52.576;13.348;2023-04-08T07:54:54;24.77;;;11.53;;
11957;SDS011;6039;52.576;13.348;2023-04-08T07:59:58;25.87;;;11.40;;
11957;SDS011;6039;52.576;13.348;2023-04-08T08:05:06;27.53;;;11.30;;
11957;SDS011;6039;52.576;13.348;2023-04-08T08:10:11;22.73;;;12.10;;
11957;SDS011;6039;52.576;13.348;2023-04-08T08:15:15;26.63;;;11.37;;
11957;SDS011;6039;52.576;13.348;2023-04-08T08:20:22;29.70;;;11.97;;
11957;SDS011;6039;52.576;13.348;2023-04-08T08:25:26;21.53;;;11.20;;
11957;SDS011;6039;52.576;13.348;2023-04-08T08:30:30;21.10;;;11.10;;
11957;SDS011;6039;52.576;13.348;2023-04-08T08:35:36;24.00;;;11.47;;
11957;SDS011;6039;52.576;13.348;2023-04-08T08:40:40;24.27;;;11.23;;
11957;SDS011;6039;52.576;13.348;2023-04-08T08:45:44;25.63;;;11.10;;
11957;SDS011;6039;52.576;13.348;2023-04-08T08:50:51;23.17;;;10.47;;
11957;SDS011;6039;52.576;13.348;2023-04-08T08:55:55;23.47;;;11.70;;
11957;SDS011;6039;52.576;13.348;2023-04-08T09:00:59;20.60;;;10.47;;
11957;SDS011;6039;52.576;13.348;2023-04-08T09:06:05;22.80;;;11.37;;
11957;SDS011;6039;52.576;13.348;2023-04-08T09:11:10;25.93;;;11.33;;
11957;SDS011;6039;52.576;13.348;2023-04-08T09:16:16;26.03;;;11.60;;
11957;SDS011;6039;52.576;13.348;2023-04-08T09:21:25;24.57;;;10.47;;
11957;SDS011;6039;52.576;13.348;2023-04-08T09:26:30;20.97;;;10.37;;
11957;SDS011;6039;52.576;13.348;2023-04-08T09:31:35;23.07;;;11.30;;
11957;SDS011;6039;52.576;13.348;2023-04-08T09:36:42;22.00;;;10.53;;
11957;SDS011;6039;52.576;13.348;2023-04-08T09:41:48;23.13;;;10.40;;
11957;SDS011;6039;52.576;13.348;2023-04-08T09:46:55;23.13;;;10.87;;
11957;SDS011;6039;52.576;13.348;2023-04-08T09:52:10;22.40;;;11.80;;
11957;SDS011;6039;52.576;13.348;2023-04-08T09:57:16;22.30;;;10.50;;
11957;SDS011;6039;52.576;13.348;2023-04-08T10:02:28;20.27;;;10.37;;
11957;SDS011;6039;52.576;13.348;2023-04-08T10:07:36;23.17;;;10.63;;
11957;SDS011;6039;52.576;13.348;2023-04-08T10:12:40;18.93;;;10.40;;
11957;SDS011;6039;52.576;13.348;2023-04-08T10:17:44;22.30;;;10.87;;
11957;SDS011;6039;52.576;13.348;2023-04-08T10:22:50;20.83;;;11.10;;
11957;SDS011;6039;52.576;13.348;2023-04-08T10:27:55;21.13;;;10.43;;
11957;SDS011;6039;52.576;13.348;2023-04-08T10:32:59;20.07;;;9.60;;
11957;SDS011;6039;52.576;13.348;2023-04-08T10:38:05;19.43;;;10.37;;
11957;SDS011;6039;52.576;13.348;2023-04-08T10:43:12;21.53;;;10.47;;
11957;SDS011;6039;52.576;13.348;2023-04-08T10:48:17;16.67;;;9.63;;
11957;SDS011;6039;52.576;13.348;2023-04-08T10:53:28;15.13;;;8.93;;
11957;SDS011;6039;52.576;13.348;2023-04-08T10:58:33;14.60;;;8.37;;
11957;SDS011;6039;52.576;13.348;2023-04-08T11:03:38;16.00;;;9.17;;
11957;SDS011;6039;52.576;13.348;2023-04-08T11:08:44;17.97;;;9.40;;
11957;SDS011;6039;52.576;13.348;2023-04-08T11:13:49;14.13;;;8.67;;
11957;SDS011;6039;52.576;13.348;2023-04-08T11:18:53;16.13;;;8.23;;
11957;SDS011;6039;52.576;13.348;2023-04-08T11:24:01;11.77;;;7.80;;
11957;SDS011;6039;52.576;13.348;2023-04-08T11:29:10;13.13;;;8.17;;
11957;SDS011;6039;52.576;13.348;2023-04-08T11:34:20;15.50;;;8.60;;
11957;SDS011;6039;52.576;13.348;2023-04-08T11:39:27;14.73;;;8.30;;
11957;SDS011;6039;52.576;13.348;2023-04-08T11:44:32;15.27;;;9.33;;
11957;SDS011;6039;52.576;13.348;2023-04-08T11:49:45;13.93;;;8.77;;
11957;SDS011;6039;52.576;13.348;2023-04-08T11:54:52;15.17;;;9.13;;
11957;SDS011;6039;52.576;13.348;2023-04-08T11:59:57;14.30;;;8.27;;
11957;SDS011;6039;52.576;13.348;2023-04-08T12:05:02;13.00;;;8.07;;
11957;SDS011;6039;52.576;13.348;2023-04-08T12:10:10;16.23;;;8.43;;
11957;SDS011;6039;52.576;13.348;2023-04-08T12:15:14;12.97;;;8.10;;
11957;SDS011;6039;52.576;13.348;2023-04-08T12:20:18;13.63;;;8.10;;
11957;SDS011;6039;52.576;13.348;2023-04-08T12:25:25;13.67;;;8.50;;
11957;SDS011;6039;52.576;13.348;2023-04-08T12:30:30;12.80;;;8.13;;
11957;SDS011;6039;52.576;13.348;2023-04-08T12:35:34;12.97;;;7.93;;
11957;SDS011;6039;52.576;13.348;2023-04-08T12:40:40;14.60;;;8.80;;
11957;SDS011;6039;52.576;13.348;2023-04-08T12:45:44;15.30;;;8.90;;
11957;SDS011;6039;52.576;13.348;2023-04-08T12:50:48;13.77;;;7.97;;
11957;SDS011;6039;52.576;13.348;2023-04-08T12:55:55;16.60;;;9.13;;
11957;SDS011;6039;52.576;13.348;2023-04-08T13:00:59;13.67;;;8.23;;
11957;SDS011;6039;52.576;13.348;2023-04-08T13:06:03;14.70;;;9.10;;
11957;SDS011;6039;52.576;13.348;2023-04-08T13:11:09;16.43;;;8.97;;
11957;SDS011;6039;52.576;13.348;2023-04-08T13:16:13;15.30;;;9.40;;
11957;SDS011;6039;52.576;13.348;2023-04-08T13:21:18;11.13;;;7.63;;
11957;SDS011;6039;52.576;13.348;2023-04-08T13:26:24;12.33;;;7.53;;
11957;SDS011;6039;52.576;13.348;2023-04-08T13:31:28;11.70;;;7.83;;
11957;SDS011;6039;52.576;13.348;2023-04-08T13:36:32;13.47;;;8.27;;
11957;SDS011;6039;52.576;13.348;2023-04-08T13:41:39;12.17;;;8.27;;
11957;SDS011;6039;52.576;13.348;2023-04-08T13:46:43;12.00;;;7.80;;
11957;SDS011;6039;52.576;13.348;2023-04-08T13:51:47;11.07;;;7.63;;
11957;SDS011;6039;52.576;13.348;2023-04-08T13:56:53;11.23;;;7.73;;
11957;SDS011;6039;52.576;13.348;2023-04-08T14:01:57;13.00;;;7.57;;
11957;SDS011;6039;52.576;13.348;2023-04-08T14:07:01;12.07;;;8.00;;
11957;SDS011;6039;52.576;13.348;2023-04-08T14:12:08;9.70;;;6.83;;
11957;SDS011;6039;52.576;13.348;2023-04-08T14:17:12;9.47;;;6.60;;
11957;SDS011;6039;52.576;13.348;2023-04-08T14:22:16;10.03;;;6.83;;
11957;SDS011;6039;52.576;13.348;2023-04-08T14:27:22;11.07;;;7.00;;
11957;SDS011;6039;52.576;13.348;2023-04-08T14:32:26;11.07;;;7.23;;
11957;SDS011;6039;52.576;13.348;2023-04-08T14:37:31;8.43;;;6.33;;
11957;SDS011;6039;52.576;13.348;2023-04-08T14:42:39;11.40;;;6.60;;
11957;SDS011;6039;52.576;13.348;2023-04-08T14:47:44;8.73;;;6.17;;
11957;SDS011;6039;52.576;13.348;2023-04-08T14:52:48;9.67;;;5.93;;
11957;SDS011;6039;52.576;13.348;2023-04-08T14:57:54;8.23;;;5.80;;
11957;SDS011;6039;52.576;13.348;2023-04-08T15:02:58;8.03;;;6.10;;
11957;SDS011;6039;52.576;13.348;2023-04-08T15:08:03;8.83;;;6.10;;
11957;SDS011;6039;52.576;13.348;2023-04-08T15:13:09;9.80;;;6.40;;
11957;SDS011;6039;52.576;13.348;2023-04-08T15:18:13;8.77;;;5.80;;
11957;SDS011;6039;52.576;13.348;2023-04-08T15:23:17;9.53;;;6.67;;
11957;SDS011;6039;52.576;13.348;2023-04-08T15:28:24;8.20;;;6.00;;
11957;SDS011;6039;52.576;13.348;2023-04-08T15:33:28;7.77;;;5.63;;
11957;SDS011;6039;52.576;13.348;2023-04-08T15:38:32;8.00;;;5.53;;
11957;SDS011;6039;52.576;13.348;2023-04-08T15:43:39;8.10;;;5.67;;
11957;SDS011;6039;52.576;13.348;2023-04-08T15:48:43;8.63;;;6.23;;
11957;SDS011;6039;52.576;13.348;2023-04-08T15:53:47;8.53;;;5.53;;
11957;SDS011;6039;52.576;13.348;2023-04-08T15:58:54;8.70;;;6.27;;
11957;SDS011;6039;52.576;13.348;2023-04-08T16:03:58;9.07;;;6.13;;
11957;SDS011;6039;52.576;13.348;2023-04-08T16:09:02;8.87;;;6.13;;
11957;SDS011;6039;52.576;13.348;2023-04-08T16:14:09;12.13;;;6.70;;
11957;SDS011;6039;52.576;13.348;2023-04-08T16:19:13;8.90;;;6.20;;
11957;SDS011;6039;52.576;13.348;2023-04-08T16:24:17;9.10;;;6.43;;
11957;SDS011;6039;52.576;13.348;2023-04-08T16:29:24;16.87;;;10.90;;
11957;SDS011;6039;52.576;13.348;2023-04-08T16:34:28;10.40;;;7.20;;
11957;SDS011;6039;52.576;13.348;2023-04-08T16:39:32;11.63;;;7.40;;
11957;SDS011;6039;52.576;13.348;2023-04-08T16:44:39;10.23;;;6.30;;
11957;SDS011;6039;52.576;13.348;2023-04-08T16:49:43;9.23;;;6.27;;
11957;SDS011;6039;52.576;13.348;2023-04-08T16:54:46;8.70;;;6.17;;
11957;SDS011;6039;52.576;13.348;2023-04-08T16:59:53;14.20;;;8.80;;
11957;SDS011;6039;52.576;13.348;2023-04-08T17:04:57;14.47;;;9.17;;
11957;SDS011;6039;52.576;13.348;2023-04-08T17:10:02;15.10;;;9.53;;
11957;SDS011;6039;52.576;13.348;2023-04-08T17:15:09;14.77;;;9.37;;
11957;SDS011;6039;52.576;13.348;2023-04-08T17:20:13;15.67;;;10.10;;
11957;SDS011;6039;52.576;13.348;2023-04-08T17:25:17;17.07;;;10.57;;
11957;SDS011;6039;52.576;13.348;2023-04-08T17:30:25;18.27;;;11.03;;
11957;SDS011;6039;52.576;13.348;2023-04-08T17:35:29;14.67;;;9.20;;
11957;SDS011;6039;52.576;13.348;2023-04-08T17:40:33;13.90;;;9.43;;
11957;SDS011;6039;52.576;13.348;2023-04-08T17:45:40;16.00;;;9.70;;
11957;SDS011;6039;52.576;13.348;2023-04-08T17:50:44;15.30;;;9.70;;
11957;SDS011;6039;52.576;13.348;2023-04-08T17:55:48;17.00;;;10.53;;
11957;SDS011;6039;52.576;13.348;2023-04-08T18:00:56;17.07;;;10.47;;
11957;SDS011;6039;52.576;13.348;2023-04-08T18:06:00;15.63;;;10.50;;
11957;SDS011;6039;52.576;13.348;2023-04-08T18:11:04;18.87;;;11.57;;
11957;SDS011;6039;52.576;13.348;2023-04-08T18:16:16;16.93;;;11.37;;
11957;SDS011;6039;52.576;13.348;2023-04-08T18:21:21;17.83;;;11.23;;
11957;SDS011;6039;52.576;13.348;2023-04-08T18:26:26;19.70;;;11.87;;
11957;SDS011;6039;52.576;13.348;2023-04-08T18:31:32;19.87;;;12.07;;
11957;SDS011;6039;52.576;13.348;2023-04-08T18:36:36;19.23;;;11.60;;
11957;SDS011;6039;52.576;13.348;2023-04-08T18:41:40;20.77;;;12.47;;
11957;SDS011;6039;52.576;13.348;2023-04-08T18:46:47;22.93;;;12.70;;
11957;SDS011;6039;52.576;13.348;2023-04-08T18:51:51;19.87;;;12.80;;
11957;SDS011;6039;52.576;13.348;2023-04-08T18:56:55;23.33;;;12.90;;
11957;SDS011;6039;52.576;13.348;2023-04-08T19:02:01;21.57;;;12.60;;
11957;SDS011;6039;52.576;13.348;2023-04-08T19:07:05;21.53;;;12.50;;
11957;SDS011;6039;52.576;13.348;2023-04-08T19:12:10;19.33;;;11.57;;
11957;SDS011;6039;52.576;13.348;2023-04-08T19:17:17;21.40;;;12.87;;
11957;SDS011;6039;52.576;13.348;2023-04-08T19:22:24;21.53;;;12.50;;
11957;SDS011;6039;52.576;13.348;2023-04-08T19:27:28;24.90;;;12.90;;
11957;SDS011;6039;52.576;13.348;2023-04-08T19:32:34;19.83;;;12.23;;
11957;SDS011;6039;52.576;13.348;2023-04-08T19:37:38;20.07;;;11.57;;
11957;SDS011;6039;52.576;13.348;2023-04-08T19:42:42;19.07;;;11.00;;
11957;SDS011;6039;52.576;13.348;2023-04-08T19:47:49;18.47;;;11.37;;
11957;SDS011;6039;52.576;13.348;2023-04-08T19:52:53;17.37;;;11.30;;
11957;SDS011;6039;52.576;13.348;2023-04-08T19:57:57;18.47;;;11.00;;
11957;SDS011;6039;52.576;13.348;2023-04-08T20:03:04;18.80;;;10.77;;
11957;SDS011;6039;52.576;13.348;2023-04-08T20:08:08;18.00;;;10.83;;
11957;SDS011;6039;52.576;13.348;2023-04-08T20:13:12;18.17;;;11.13;;
11957;SDS011;6039;52.576;13.348;2023-04-08T20:18:18;17.77;;;10.43;;
11957;SDS011;6039;52.576;13.348;2023-04-08T20:23:23;19.20;;;10.63;;
11957;SDS011;6039;52.576;13.348;2023-04-08T20:28:27;18.47;;;10.70;;
11957;SDS011;6039;52.576;13.348;2023-04-08T20:33:34;17.73;;;10.57;;
11957;SDS011;6039;52.576;13.348;2023-04-08T20:38:42;16.10;;;10.07;;
11957;SDS011;6039;52.576;13.348;2023-04-08T20:43:46;18.87;;;10.70;;
11957;SDS011;6039;52.576;13.348;2023-04-08T20:48:55;17.43;;;10.73;;
11957;SDS011;6039;52.576;13.348;2023-04-08T20:53:59;17.47;;;10.37;;
11957;SDS011;6039;52.576;13.348;2023-04-08T20:59:03;20.37;;;10.90;;
11957;SDS011;6039;52.576;13.348;2023-04-08T21:04:10;20.23;;;10.97;;
11957;SDS011;6039;52.576;13.348;2023-04-08T21:09:15;19.07;;;11.37;;
11957;SDS011;6039;52.576;13.348;2023-04-08T21:14:19;22.17;;;11.90;;
11957;SDS011;6039;52.576;13.348;2023-04-08T21:19:26;22.37;;;11.47;;
11957;SDS011;6039;52.576;13.348;2023-04-08T21:24:29;18.70;;;11.17;;
11957;SDS011;6039;52.576;13.348;2023-04-08T21:29:33;21.07;;;11.83;;
11957;SDS011;6039;52.576;13.348;2023-04-08T21:34:40;20.00;;;11.37;;
11957;SDS011;6039;52.576;13.348;2023-04-08T21:39:44;22.90;;;11.43;;
11957;SDS011;6039;52.576;13.348;2023-04-08T21:44:49;22.53;;;12.70;;
11957;SDS011;6039;52.576;13.348;2023-04-08T21:49:55;21.93;;;12.13;;
11957;SDS011;6039;52.576;13.348;2023-04-08T21:54:59;21.20;;;11.63;;
11957;SDS011;6039;52.576;13.348;2023-04-08T22:00:04;19.97;;;11.57;;
11957;SDS011;6039;52.576;13.348;2023-04-08T22:05:14;19.70;;;11.40;;
11957;SDS011;6039;52.576;13.348;2023-04-08T22:10:19;22.37;;;12.27;;
11957;SDS011;6039;52.576;13.348;2023-04-08T22:15:23;19.80;;;12.10;;
11957;SDS011;6039;52.576;13.348;2023-04-08T22:20:29;19.57;;;11.77;;
11957;SDS011;6039;52.576;13.348;2023-04-08T22:25:33;20.37;;;12.03;;
11957;SDS011;6039;52.576;13.348;2023-04-08T22:30:37;21.53;;;12.00;;
11957;SDS011;6039;52.576;13.348;2023-04-08T22:35:44;20.03;;;11.80;;
11957;SDS011;6039;52.576;13.348;2023-04-08T22:40:48;19.60;;;11.60;;
11957;SDS011;6039;52.576;13.348;2023-04-08T22:45:52;20.43;;;12.33;;
11957;SDS011;6039;52.576;13.348;2023-04-08T22:50:58;22.80;;;13.00;;
11957;SDS011;6039;52.576;13.348;2023-04-08T22:56:02;21.57;;;11.57;;
11957;SDS011;6039;52.576;13.348;2023-04-08T23:01:09;21.93;;;12.30;;
11957;SDS011;6039;52.576;13.348;2023-04-08T23:06:18;23.47;;;12.53;;
11957;SDS011;6039;52.576;13.348;2023-04-08T23:11:22;20.90;;;12.10;;
11957;SDS011;6039;52.576;13.348;2023-04-08T23:16:26;21.90;;;12.57;;
11957;SDS011;6039;52.576;13.348;2023-04-08T23:21:33;24.30;;;12.87;;
11957;SDS011;6039;52.576;13.348;2023-04-08T23:26:37;21.07;;;11.57;;
11957;SDS011;6039;52.576;13.348;2023-04-08T23:31:41;27.40;;;13.73;;
11957;SDS011;6039;52.576;13.348;2023-04-08T23:36:48;24.57;;;12.53;;
11957;SDS011;6039;52.576;13.348;2023-04-08T23:41:51;23.27;;;11.83;;
11957;SDS011;6039;52.576;13.348;2023-04-08T23:46:55;24.90;;;13.67;;
11957;SDS011;6039;52.576;13.348;2023-04-08T23:52:02;24.80;;;13.10;;
11957;SDS011;6039;52.576;13.348;2023-04-08T23:57:06;27.17;;;13.43;;
